Time;durP1;ratioP1;P1;durP2;ratioP2;P2;SDS_P1;SDS_P2;PMS_P1;PMS_P2;Temp;Humidity;BMP_temperature;BMP_pressure;BME280_temperature;BME280_humidity;BME280_pressure;Samples;Min_cycle;Max_cycle;Signal;HPM_P1;HPM_P2
2022/06/27 00:00:55;;;;;;;23.20;10.05;;;;;;;16.21;92.91;101370.47;5068814;28;20042;-79
2022/06/27 00:03:20;;;;;;;20.08;8.85;;;;;;;16.22;92.69;101360.47;5071129;28;20028;-79
2022/06/27 00:05:46;;;;;;;22.40;9.00;;;;;;;16.22;92.31;101363.19;5070881;28;20071;-79
2022/06/27 00:08:11;;;;;;;19.83;8.85;;;;;;;16.21;93.16;101359.63;5069781;28;20032;-79
2022/06/27 00:10:36;;;;;;;19.75;9.32;;;;;;;16.20;93.17;101357.91;5068615;28;20044;-79
2022/06/27 00:13:02;;;;;;;22.70;9.63;;;;;;;16.20;92.69;101363.31;5072929;28;20111;-79
2022/06/27 00:15:28;;;;;;;22.00;9.68;;;;;;;16.23;93.56;101370.34;5070094;28;20429;-79
2022/06/27 00:17:53;;;;;;;25.67;10.68;;;;;;;16.22;93.31;101363.19;5063598;28;20527;-79
2022/06/27 00:20:19;;;;;;;21.48;9.57;;;;;;;16.23;93.21;101364.91;5070404;28;20043;-79
2022/06/27 00:22:44;;;;;;;20.40;9.23;;;;;;;16.23;93.34;101368.47;5070029;28;20020;-79
2022/06/27 00:25:10;;;;;;;19.70;8.80;;;;;;;16.22;93.06;101374.91;5061689;28;20471;-79
2022/06/27 00:27:36;;;;;;;23.38;10.30;;;;;;;16.22;92.99;101374.03;5069167;28;20021;-79
2022/06/27 00:30:03;;;;;;;24.10;9.95;;;;;;;16.22;93.99;101380.34;5068901;28;20039;-79
2022/06/27 00:32:29;;;;;;;20.10;9.88;;;;;;;16.23;94.46;101386.59;5070325;28;20091;-79
2022/06/27 00:34:54;;;;;;;20.23;10.05;;;;;;;16.24;94.24;101385.63;5069001;28;20032;-79
2022/06/27 00:37:19;;;;;;;22.05;10.18;;;;;;;16.22;94.43;101383.03;5059965;28;20028;-79
2022/06/27 00:39:45;;;;;;;20.48;9.15;;;;;;;16.24;94.89;101381.03;5060740;28;20492;-79
2022/06/27 00:42:10;;;;;;;20.17;9.48;;;;;;;16.22;93.98;101379.47;5070061;28;20020;-79
2022/06/27 00:44:39;;;;;;;22.15;9.23;;;;;;;16.23;94.51;101384.75;5068976;28;20124;-79
2022/06/27 00:47:06;;;;;;;21.48;9.73;;;;;;;16.23;94.53;101392.88;5085139;28;20107;-79
2022/06/27 00:49:33;;;;;;;20.00;9.98;;;;;;;16.26;93.70;101386.34;5059387;28;20032;-79
2022/06/27 00:51:59;;;;;;;22.40;9.88;;;;;;;16.28;93.25;101397.88;5068932;28;20119;-79
2022/06/27 00:54:25;;;;;;;22.70;10.38;;;;;;;16.32;94.39;101396.63;5069091;28;20123;-79
2022/06/27 00:56:51;;;;;;;22.48;10.15;;;;;;;16.33;94.18;101394.78;5069654;28;20027;-79
2022/06/27 00:59:17;;;;;;;19.85;8.85;;;;;;;16.34;92.46;101400.09;5069363;28;20119;-79
2022/06/27 01:01:43;;;;;;;22.52;9.68;;;;;;;16.38;93.19;101395.22;5069893;28;20362;-79
2022/06/27 01:04:08;;;;;;;19.98;9.35;;;;;;;16.39;92.42;101397.81;5066832;28;20024;-79
2022/06/27 01:06:33;;;;;;;21.80;9.85;;;;;;;16.41;92.95;101398.53;5065739;28;20049;-79
2022/06/27 01:08:59;;;;;;;20.38;8.40;;;;;;;16.42;93.05;101397.53;5068577;28;20055;-79
2022/06/27 01:11:24;;;;;;;21.00;9.52;;;;;;;16.40;92.82;101393.25;5067243;28;20054;-79
2022/06/27 01:13:50;;;;;;;20.42;9.27;;;;;;;16.41;92.96;101398.53;5067842;28;20099;-79
2022/06/27 01:16:15;;;;;;;24.00;10.23;;;;;;;16.42;92.66;101405.66;5055800;28;20029;-79
2022/06/27 01:18:42;;;;;;;22.92;9.07;;;;;;;16.43;92.29;101404.66;5068761;28;20028;-79
2022/06/27 01:21:08;;;;;;;20.55;9.32;;;;;;;16.43;92.02;101403.81;5070505;28;20444;-79
2022/06/27 01:23:36;;;;;;;22.02;9.20;;;;;;;16.43;92.06;101410.09;5068087;28;20024;-79
2022/06/27 01:26:02;;;;;;;22.25;10.02;;;;;;;16.43;92.16;101410.09;5067964;28;20031;-79
2022/06/27 01:28:28;;;;;;;21.27;9.75;;;;;;;16.42;93.07;101399.38;5069249;28;20050;-79
2022/06/27 01:30:53;;;;;;;24.65;9.05;;;;;;;16.41;92.29;101393.13;5067526;28;20040;-79
2022/06/27 01:33:19;;;;;;;21.45;9.45;;;;;;;16.41;92.22;101395.81;5067581;28;20120;-79
2022/06/27 01:35:44;;;;;;;22.20;9.23;;;;;;;16.40;91.07;101393.25;5068243;28;20024;-79
2022/06/27 01:38:09;;;;;;;23.05;9.45;;;;;;;16.38;92.97;101387.97;5065496;28;20024;-79
2022/06/27 01:40:35;;;;;;;21.45;9.82;;;;;;;16.39;92.45;101373.38;5050462;28;20029;-79
2022/06/27 01:43:00;;;;;;;24.23;9.70;;;;;;;16.39;93.02;101370.66;5066710;28;20367;-79
2022/06/27 01:45:29;;;;;;;22.00;9.95;;;;;;;16.39;93.00;101361.69;5063757;28;20036;-79
2022/06/27 01:47:54;;;;;;;20.30;9.40;;;;;;;16.37;93.94;101363.66;5069802;28;20032;-79
2022/06/27 01:50:23;;;;;;;22.52;9.88;;;;;;;16.38;94.31;101368.97;5075793;28;20113;-79
2022/06/27 01:52:50;;;;;;;22.75;9.60;;;;;;;16.36;94.42;101365.53;5067936;28;20093;-79
2022/06/27 01:55:15;;;;;;;21.50;10.35;;;;;;;16.35;94.35;101368.38;5063314;28;20033;-79
2022/06/27 01:57:41;;;;;;;23.02;9.90;;;;;;;16.32;94.04;101364.06;5063757;28;20020;-79
2022/06/27 02:00:08;;;;;;;21.65;10.50;;;;;;;16.29;93.60;101358.94;5066625;28;20480;-79
2022/06/27 02:02:33;;;;;;;23.83;9.60;;;;;;;16.27;93.95;101357.34;5068997;28;20059;-79
2022/06/27 02:05:00;;;;;;;20.15;9.68;;;;;;;16.27;94.26;101350.09;5066152;28;20041;-79
2022/06/27 02:07:25;;;;;;;22.30;9.35;;;;;;;16.26;94.69;101353.78;5068073;28;20029;-79
2022/06/27 02:09:50;;;;;;;22.52;10.18;;;;;;;16.27;95.46;101344.66;5065506;28;20107;-79
2022/06/27 02:12:19;;;;;;;23.27;9.35;;;;;;;16.27;95.50;101339.25;5062430;28;20032;-79
2022/06/27 02:14:53;;;;;;;24.92;10.35;;;;;;;16.27;94.83;101350.09;5068870;28;20390;-79
2022/06/27 02:17:20;;;;;;;24.05;11.20;;;;;;;16.25;95.36;101346.63;5069407;28;20364;-79
2022/06/27 02:19:45;;;;;;;20.80;10.00;;;;;;;16.25;95.61;101335.78;5066248;28;20040;-79
2022/06/27 02:22:11;;;;;;;22.25;10.55;;;;;;;16.24;95.26;101337.66;5068054;28;20029;-78
2022/06/27 02:24:37;;;;;;;22.05;11.07;;;;;;;16.20;94.75;101328.06;5067041;28;20055;-78
2022/06/27 02:27:04;;;;;;;23.05;10.75;;;;;;;16.20;94.87;101332.63;5068969;28;20387;-78
2022/06/27 02:29:29;;;;;;;21.65;10.52;;;;;;;16.18;94.27;101337.31;5066948;28;20151;-78
2022/06/27 02:31:55;;;;;;;21.50;10.55;;;;;;;16.17;94.75;101331.06;5069086;28;20098;-78
2022/06/27 02:34:20;;;;;;;20.88;9.98;;;;;;;16.15;95.14;101330.34;5066832;28;20052;-78
2022/06/27 02:36:49;;;;;;;23.27;11.82;;;;;;;16.14;95.31;101331.34;5067544;28;20174;-78
2022/06/27 02:39:20;;;;;;;22.80;10.93;;;;;;;16.14;95.15;101334.03;5070701;28;20146;-78
2022/06/27 02:41:47;;;;;;;22.92;11.55;;;;;;;16.13;95.49;101335.03;5074439;28;20027;-78
2022/06/27 02:44:14;;;;;;;24.60;11.10;;;;;;;16.13;95.85;101323.34;5067765;28;20028;-78
2022/06/27 02:46:40;;;;;;;21.13;11.02;;;;;;;16.12;96.16;101324.31;5069807;28;20431;-78
2022/06/27 02:49:06;;;;;;;23.80;11.82;;;;;;;16.06;96.24;101318.47;5067870;28;20120;-78
2022/06/27 02:51:54;;;;;;;22.73;11.38;;;;;;;16.06;95.83;101313.06;5078322;28;20424;-78
2022/06/27 02:54:25;;;;;;;22.35;11.48;;;;;;;16.01;95.84;101309.88;5070375;28;20028;-78
2022/06/27 02:57:16;;;;;;;25.27;11.52;;;;;;;16.02;95.81;101299.91;5072517;28;20020;-78
2022/06/27 02:59:44;;;;;;;21.25;11.10;;;;;;;15.99;95.90;101301.03;5070949;28;20032;-78
2022/06/27 03:02:10;;;;;;;21.58;11.02;;;;;;;15.96;96.25;101295.88;5071335;28;20091;-78
2022/06/27 03:04:38;;;;;;;23.73;10.90;;;;;;;15.94;96.06;101292.44;5070701;28;20100;-78
2022/06/27 03:07:03;;;;;;;23.27;11.02;;;;;;;15.91;96.00;101287.28;5056062;28;20043;-78
2022/06/27 03:09:28;;;;;;;21.10;11.00;;;;;;;15.87;95.82;101289.44;5071779;28;20040;-78
2022/06/27 03:11:54;;;;;;;21.92;10.68;;;;;;;15.84;95.78;101284.28;5064198;28;20052;-78
2022/06/27 03:14:19;;;;;;;24.92;11.77;;;;;;;15.81;95.72;101283.69;5061847;28;20738;-78
2022/06/27 03:16:44;;;;;;;22.05;10.70;;;;;;;15.76;95.72;101280.50;5066717;28;20082;-78
2022/06/27 03:19:10;;;;;;;25.05;11.77;;;;;;;15.72;95.79;101285.31;5067617;28;20687;-78
2022/06/27 03:21:35;;;;;;;23.65;11.82;;;;;;;15.68;95.43;101284.75;5080645;28;20490;-78
2022/06/27 03:24:01;;;;;;;22.10;11.50;;;;;;;15.62;95.60;101295.25;5068623;28;20028;-78
2022/06/27 03:26:27;;;;;;;25.13;11.13;;;;;;;15.56;95.50;101291.22;5068931;28;20249;-78
2022/06/27 03:28:52;;;;;;;21.52;11.35;;;;;;;15.52;95.67;101287.06;5071051;28;20030;-78
2022/06/27 03:31:17;;;;;;;21.45;11.10;;;;;;;15.45;95.68;101283.22;5071411;28;20032;-78
2022/06/27 03:33:43;;;;;;;21.38;10.65;;;;;;;15.38;95.66;101289.13;5064179;28;20440;-78
2022/06/27 03:36:08;;;;;;;23.00;10.90;;;;;;;15.36;95.95;101280.28;5067567;28;20441;-78
2022/06/27 03:38:34;;;;;;;22.70;11.35;;;;;;;15.32;95.53;101286.97;5070941;28;20495;-78
2022/06/27 03:41:00;;;;;;;22.58;11.25;;;;;;;15.28;95.88;101284.66;5070410;28;20035;-78
2022/06/27 03:43:27;;;;;;;22.33;10.95;;;;;;;15.25;95.93;101284.94;5070054;28;20486;-78
2022/06/27 03:45:53;;;;;;;21.02;10.95;;;;;;;15.20;95.77;101288.03;5068718;28;20021;-78
2022/06/27 03:51:02;;;;;;;23.27;12.10;;;;;;;15.13;94.89;101286.84;5070630;28;20048;-78
2022/06/27 03:53:28;;;;;;;23.75;11.40;;;;;;;15.13;95.57;101284.13;5068981;28;20028;-78
2022/06/27 03:55:53;;;;;;;21.42;10.80;;;;;;;15.10;95.40;101295.22;5072470;28;20050;-78
2022/06/27 03:58:19;;;;;;;23.15;11.30;;;;;;;15.07;95.38;101298.22;5069215;28;20029;-78
2022/06/27 04:00:44;;;;;;;23.38;11.98;;;;;;;15.06;95.52;101301.88;5068954;28;20028;-78
2022/06/27 04:03:10;;;;;;;23.92;11.30;;;;;;;15.02;95.76;101318.41;5069950;28;20055;-78
2022/06/27 04:05:35;;;;;;;23.13;11.38;;;;;;;15.01;96.03;101319.38;5070538;28;20029;-78
2022/06/27 04:08:00;;;;;;;24.05;11.23;;;;;;;15.03;96.58;101301.16;5069577;28;20033;-78
2022/06/27 04:10:26;;;;;;;25.05;12.15;;;;;;;15.07;97.19;101296.34;5070767;28;20135;-78
2022/06/27 04:12:51;;;;;;;22.55;11.80;;;;;;;15.11;97.48;101305.94;5070331;28;20107;-79
2022/06/27 04:15:17;;;;;;;21.95;11.30;;;;;;;15.15;98.41;101304.69;5070383;28;20032;-79
2022/06/27 04:17:42;;;;;;;23.73;11.82;;;;;;;15.19;98.45;101306.09;5072431;28;20047;-79
2022/06/27 04:20:08;;;;;;;23.95;12.60;;;;;;;15.27;98.80;101296.47;5070355;28;20035;-79
2022/06/27 04:22:33;;;;;;;25.85;12.55;;;;;;;15.31;98.91;101282.53;5070478;28;20024;-79
2022/06/27 04:24:59;;;;;;;24.75;12.73;;;;;;;15.40;99.51;101282.72;5069287;28;20076;-79
2022/06/27 04:27:27;;;;;;;24.85;13.88;;;;;;;15.47;99.62;101273.09;5068907;28;20085;-79
2022/06/27 04:29:53;;;;;;;23.20;12.82;;;;;;;15.54;100.00;101266.13;5068010;28;20507;-79
2022/06/27 04:32:20;;;;;;;28.77;14.23;;;;;;;15.61;99.50;101266.44;5068693;28;20394;-79
2022/06/27 04:34:46;;;;;;;26.90;12.85;;;;;;;15.66;99.55;101259.63;5070443;28;20048;-79
2022/06/27 04:37:11;;;;;;;28.85;14.20;;;;;;;15.70;100.00;101233.97;5062973;28;20042;-79
2022/06/27 04:39:40;;;;;;;25.85;13.68;;;;;;;15.75;99.39;101230.84;5064789;28;20025;-79
2022/06/27 04:42:07;;;;;;;25.88;14.45;;;;;;;15.76;99.58;101229.03;5065001;28;20020;-79
2022/06/27 04:44:34;;;;;;;27.17;14.57;;;;;;;15.78;99.82;101236.03;5069995;28;20035;-79
2022/06/27 04:46:59;;;;;;;26.65;14.90;;;;;;;15.81;100.00;101243.91;5067168;28;20471;-79
2022/06/27 04:49:25;;;;;;;26.23;15.80;;;;;;;15.82;99.61;101242.03;5064257;28;20025;-79
2022/06/27 04:51:50;;;;;;;27.35;15.85;;;;;;;15.82;99.54;101247.47;5072014;28;20021;-79
2022/06/27 04:54:18;;;;;;;28.35;15.35;;;;;;;15.82;99.39;101252.88;5068148;28;20404;-79
2022/06/27 04:56:44;;;;;;;28.17;16.13;;;;;;;15.84;99.85;101259.00;5070319;28;20025;-79
2022/06/27 04:59:11;;;;;;;27.38;16.08;;;;;;;15.83;98.93;101262.75;5062159;28;20098;-79
2022/06/27 05:01:37;;;;;;;26.50;15.10;;;;;;;15.85;99.47;101266.16;5057885;28;20064;-79
2022/06/27 05:04:03;;;;;;;26.88;14.38;;;;;;;15.86;99.22;101254.34;5066859;28;20096;-79
2022/06/27 05:06:29;;;;;;;28.38;15.35;;;;;;;15.86;99.50;101257.03;5066020;28;20081;-79
2022/06/27 05:08:54;;;;;;;28.80;14.68;;;;;;;15.83;99.11;101239.19;5069939;28;20040;-79
2022/06/27 05:11:20;;;;;;;28.35;15.98;;;;;;;15.87;99.24;101234.34;5067485;28;20024;-79
2022/06/27 05:13:45;;;;;;;24.30;15.15;;;;;;;15.85;99.29;101228.22;5065701;28;20099;-79
2022/06/27 05:16:10;;;;;;;26.88;15.40;;;;;;;15.85;99.27;101237.19;5067779;28;20472;-79
2022/06/27 05:18:36;;;;;;;29.15;14.38;;;;;;;15.87;99.49;101239.75;5063432;28;20495;-79
2022/06/27 05:21:01;;;;;;;28.35;15.75;;;;;;;15.89;99.34;101248.63;5068907;28;20104;-79
2022/06/27 05:23:26;;;;;;;27.35;15.52;;;;;;;15.89;99.12;101254.91;5071150;28;20028;-79
2022/06/27 05:25:52;;;;;;;25.77;14.05;;;;;;;15.92;99.22;101255.66;5066804;28;20020;-79
2022/06/27 05:28:17;;;;;;;26.08;16.35;;;;;;;15.92;98.80;101253.78;5064590;28;20052;-79
2022/06/27 05:30:43;;;;;;;25.90;15.52;;;;;;;15.95;99.31;101252.66;5067192;28;20039;-79
2022/06/27 05:33:08;;;;;;;30.40;17.38;;;;;;;15.95;99.07;101271.63;5068288;28;20039;-79
2022/06/27 05:35:34;;;;;;;26.52;16.20;;;;;;;15.96;98.48;101298.59;5065313;28;20043;-79
2022/06/27 05:37:59;;;;;;;30.60;15.27;;;;;;;16.01;99.06;101314.44;5061165;28;20496;-79
2022/06/27 05:40:25;;;;;;;27.75;16.67;;;;;;;16.04;99.58;101334.00;5062273;28;20032;-79
2022/06/27 05:42:50;;;;;;;34.15;17.83;;;;;;;16.07;98.62;101341.84;5068744;28;20016;-79
2022/06/27 05:45:16;;;;;;;29.83;16.15;;;;;;;16.11;98.65;101347.03;5069289;28;20056;-79
2022/06/27 05:47:43;;;;;;;26.67;16.25;;;;;;;16.14;98.19;101347.59;5067506;28;20028;-79
2022/06/27 05:50:09;;;;;;;27.13;16.08;;;;;;;16.16;97.71;101361.88;5074434;28;20034;-79
2022/06/27 05:52:36;;;;;;;29.50;15.95;;;;;;;16.18;98.06;101370.75;5068559;28;20029;-79
2022/06/27 05:55:02;;;;;;;29.75;17.25;;;;;;;16.21;98.20;101380.47;5068439;28;20024;-79
2022/06/27 05:57:28;;;;;;;27.05;17.33;;;;;;;16.24;98.31;101380.19;5058544;28;20136;-79
2022/06/27 05:59:55;;;;;;;30.73;16.88;;;;;;;16.24;97.84;101370.19;5063219;28;20055;-79
2022/06/27 06:02:22;;;;;;;26.08;17.00;;;;;;;16.25;98.36;101361.06;5073706;28;20305;-79
2022/06/27 06:04:48;;;;;;;28.48;16.40;;;;;;;16.27;98.41;101357.34;5064879;28;21643;-79
2022/06/27 06:07:14;;;;;;;31.33;17.00;;;;;;;16.25;98.44;101346.63;5068143;28;20028;-79
2022/06/27 06:09:40;;;;;;;27.38;16.77;;;;;;;16.25;98.12;101335.78;5062242;28;20421;-78
2022/06/27 06:12:08;;;;;;;28.77;17.98;;;;;;;16.27;99.51;101341.94;5070370;28;20376;-78
2022/06/27 06:14:33;;;;;;;29.17;17.75;;;;;;;16.29;98.12;101348.09;5073879;28;20060;-78
2022/06/27 06:16:59;;;;;;;26.75;17.52;;;;;;;16.32;98.71;101345.09;5075161;28;20052;-78
2022/06/27 06:19:25;;;;;;;33.78;18.30;;;;;;;16.34;98.75;101351.25;5073385;28;20098;-78
2022/06/27 06:21:50;;;;;;;29.75;17.85;;;;;;;16.37;98.46;101369.97;5084768;28;20373;-78
2022/06/27 06:24:16;;;;;;;28.10;17.15;;;;;;;16.39;98.74;101384.22;5066802;28;20017;-78
2022/06/27 06:26:41;;;;;;;27.00;17.33;;;;;;;16.42;99.18;101402.09;5074768;28;20060;-78
2022/06/27 06:29:14;;;;;;;31.38;17.38;;;;;;;16.43;99.40;101396.53;5069251;28;20083;-78
2022/06/27 06:31:45;;;;;;;31.30;18.27;;;;;;;16.43;98.02;101391.09;5061456;28;20062;-78
2022/06/27 06:34:13;;;;;;;30.23;18.92;;;;;;;16.43;96.66;101380.25;5071143;28;20456;-78
2022/06/27 06:36:39;;;;;;;29.55;17.77;;;;;;;16.46;97.11;101386.38;5069229;28;20368;-78
2022/06/27 06:39:08;;;;;;;29.67;19.88;;;;;;;16.47;97.47;101375.44;5072012;28;20036;-78
2022/06/27 06:41:35;;;;;;;33.03;20.50;;;;;;;16.49;97.99;101354.44;5071608;28;20042;-78
2022/06/27 06:44:02;;;;;;;33.67;19.27;;;;;;;16.52;98.08;101340.59;5066058;28;20067;-78
2022/06/27 06:46:28;;;;;;;28.85;18.80;;;;;;;16.54;98.76;101324.16;5073641;28;20116;-78
2022/06/27 06:49:05;;;;;;;29.00;19.25;;;;;;;16.55;98.66;101317.75;5072849;28;20036;-78
2022/06/27 06:51:34;;;;;;;33.47;20.45;;;;;;;16.55;97.46;101318.59;5070118;28;20094;-78
2022/06/27 06:54:06;;;;;;;36.10;20.52;;;;;;;16.56;96.46;101331.16;5071322;28;20033;-78
2022/06/27 06:56:33;;;;;;;31.63;20.27;;;;;;;16.58;96.76;101307.44;5072697;28;20016;-78
2022/06/27 06:58:59;;;;;;;29.77;21.48;;;;;;;16.64;97.31;101306.03;5074198;28;20048;-79
2022/06/27 07:01:27;;;;;;;28.60;20.55;;;;;;;16.68;96.97;101321.03;5071106;28;20094;-78
2022/06/27 07:03:53;;;;;;;33.15;20.58;;;;;;;16.71;95.41;101326.19;5070774;28;20036;-77
2022/06/27 07:06:24;;;;;;;27.92;18.85;;;;;;;16.76;95.16;101323.94;5068151;28;20367;-77
2022/06/27 07:08:54;;;;;;;29.63;20.58;;;;;;;16.81;94.47;101319.91;5068597;28;20056;-77
2022/06/27 07:11:21;;;;;;;32.85;22.13;;;;;;;16.85;95.21;101307.75;5063867;28;20502;-77
2022/06/27 07:13:49;;;;;;;30.63;20.48;;;;;;;16.88;95.52;101311.09;5070730;28;20090;-77
2022/06/27 07:16:15;;;;;;;31.52;20.38;;;;;;;16.93;95.53;101307.94;5071699;28;20451;-77
2022/06/27 07:18:43;;;;;;;28.67;18.25;;;;;;;16.96;95.67;101323.09;5069255;28;20025;-77
2022/06/27 07:21:08;;;;;;;28.58;20.02;;;;;;;16.99;96.32;101330.97;5075880;28;20384;-77
2022/06/27 07:23:34;;;;;;;28.90;17.75;;;;;;;17.04;96.55;101336.81;5075034;28;20028;-77
2022/06/27 07:25:59;;;;;;;29.23;18.85;;;;;;;17.08;95.97;101349.09;5065478;28;20017;-77
2022/06/27 07:28:28;;;;;;;28.80;18.08;;;;;;;17.13;95.12;101363.13;5071565;28;20036;-77
2022/06/27 07:30:53;;;;;;;28.53;18.20;;;;;;;17.20;94.53;101352.53;5064732;28;20020;-77
2022/06/27 07:33:19;;;;;;;29.73;18.13;;;;;;;17.28;95.34;101341.81;5071652;28;20025;-78
2022/06/27 07:35:44;;;;;;;34.30;19.70;;;;;;;17.38;95.34;101353.53;5067789;28;20500;-78
2022/06/27 07:38:10;;;;;;;29.20;18.70;;;;;;;17.44;93.57;101349.38;5080686;28;20502;-78
2022/06/27 07:40:37;;;;;;;30.50;16.20;;;;;;;17.49;92.42;101351.66;5070116;28;20159;-78
2022/06/27 07:43:03;;;;;;;28.10;15.25;;;;;;;17.55;91.26;101356.50;5068131;28;20013;-77
2022/06/27 07:45:28;;;;;;;23.38;13.27;;;;;;;17.62;91.23;101357.63;5069503;28;20025;-77
2022/06/27 07:47:56;;;;;;;24.42;12.60;;;;;;;17.68;89.38;101354.31;5070680;28;20059;-77
2022/06/27 07:50:37;;;;;;;25.83;12.52;;;;;;;17.74;88.87;101361.88;5074440;28;20031;-77
2022/06/27 07:53:17;;;;;;;25.55;13.23;;;;;;;17.80;87.38;101366.75;5068643;28;20036;-77
2022/06/27 07:55:49;;;;;;;23.33;12.13;;;;;;;17.82;88.08;101375.63;5069543;28;20395;-78
2022/06/27 07:58:16;;;;;;;24.15;11.27;;;;;;;17.85;87.92;101381.75;5068515;28;20082;-78
2022/06/27 08:00:44;;;;;;;25.00;11.70;;;;;;;17.84;86.11;101388.22;5080799;28;20044;-78
2022/06/27 08:05:57;;;;;;;23.33;11.75;;;;;;;17.89;85.51;101394.06;5074396;28;20047;-78
2022/06/27 08:08:23;;;;;;;23.40;10.68;;;;;;;17.92;84.52;101382.91;5074626;28;20020;-78
2022/06/27 08:10:50;;;;;;;22.40;10.48;;;;;;;17.96;84.10;101387.06;5074916;28;20131;-78
2022/06/27 08:13:15;;;;;;;21.90;10.75;;;;;;;18.02;85.47;101391.91;5066963;28;20392;-78
2022/06/27 08:15:41;;;;;;;23.75;10.00;;;;;;;18.07;84.89;101388.72;5078444;28;20028;-78
2022/06/27 08:18:08;;;;;;;24.92;10.95;;;;;;;18.13;84.65;101372.69;5103899;28;20024;-78
2022/06/27 08:20:35;;;;;;;22.85;11.43;;;;;;;18.15;84.25;101370.66;5077345;28;20129;-78
2022/06/27 08:23:01;;;;;;;22.00;10.18;;;;;;;18.17;83.68;101379.53;5067747;28;20070;-78
2022/06/27 08:25:26;;;;;;;21.00;10.23;;;;;;;18.19;84.81;101392.16;5066302;28;20122;-78
2022/06/27 08:27:53;;;;;;;21.40;10.63;;;;;;;18.19;83.86;101400.31;5067958;28;20056;-78
2022/06/27 08:30:18;;;;;;;23.00;10.57;;;;;;;18.19;84.58;101405.75;5067396;28;20032;-78
2022/06/27 08:32:43;;;;;;;22.88;10.93;;;;;;;18.16;83.38;101415.91;5067655;28;20052;-78
2022/06/27 08:35:10;;;;;;;23.02;11.57;;;;;;;18.16;84.23;101418.63;5064403;28;20088;-78
2022/06/27 08:37:36;;;;;;;24.83;11.68;;;;;;;18.15;87.71;101414.19;5062317;28;20036;-78
2022/06/27 08:40:04;;;;;;;24.08;12.57;;;;;;;18.16;88.50;101417.78;5067244;28;20036;-78
2022/06/27 08:42:29;;;;;;;23.23;11.52;;;;;;;18.13;87.06;101416.19;5067520;28;20428;-78
2022/06/27 08:44:57;;;;;;;23.27;10.85;;;;;;;18.09;84.16;101414.78;5071821;28;20107;-78
2022/06/27 08:47:22;;;;;;;23.83;10.85;;;;;;;18.12;85.71;101414.47;5068453;28;20388;-78
2022/06/27 08:49:51;;;;;;;22.67;11.50;;;;;;;18.12;83.97;101408.19;5069781;28;20045;-78
2022/06/27 08:52:18;;;;;;;28.00;13.15;;;;;;;18.14;85.62;101408.88;5064428;28;20388;-78
2022/06/27 08:54:44;;;;;;;23.30;11.95;;;;;;;18.15;90.09;101410.63;5067478;28;20085;-78
2022/06/27 08:57:09;;;;;;;22.52;11.98;;;;;;;18.15;89.07;101416.91;5062663;28;20032;-78
2022/06/27 08:59:35;;;;;;;26.42;13.43;;;;;;;18.17;86.90;101416.78;5069723;28;20056;-78
2022/06/27 09:02:01;;;;;;;24.90;14.68;;;;;;;18.20;87.62;101421.03;5066851;28;20513;-77
2022/06/27 09:04:26;;;;;;;25.30;13.43;;;;;;;18.23;86.04;101437.06;5068627;28;20170;-77
2022/06/27 09:06:55;;;;;;;23.88;13.15;;;;;;;18.29;87.97;101442.78;5066325;28;20111;-77
2022/06/27 09:09:24;;;;;;;28.63;13.27;;;;;;;18.35;86.10;101433.19;5066615;28;20051;-77
2022/06/27 09:11:49;;;;;;;24.52;14.43;;;;;;;18.41;88.09;101437.16;5068001;28;20627;-78
2022/06/27 09:14:36;;;;;;;23.27;12.82;;;;;;;18.45;85.52;101436.72;5068857;28;20040;-78
2022/06/27 09:17:05;;;;;;;25.45;13.43;;;;;;;18.48;83.90;101417.34;5066370;28;20050;-78
2022/06/27 09:19:53;;;;;;;24.67;12.67;;;;;;;18.56;85.12;101410.31;5066492;28;20337;-78
2022/06/27 09:22:20;;;;;;;23.75;13.15;;;;;;;18.62;85.97;101409.69;5071400;28;20102;-78
2022/06/27 09:25:06;;;;;;;22.40;11.82;;;;;;;18.71;84.64;101432.44;5072785;28;20028;-78
2022/06/27 09:27:47;;;;;;;22.25;12.07;;;;;;;18.75;82.88;101437.41;5067572;28;20060;-78
2022/06/27 09:30:22;;;;;;;22.38;11.65;;;;;;;18.78;81.75;101431.66;5068104;28;20024;-78
2022/06/27 09:32:49;;;;;;;25.35;12.60;;;;;;;18.79;84.22;101436.09;5064402;28;20028;-78
2022/06/27 09:35:22;;;;;;;21.85;10.15;;;;;;;18.78;80.66;101431.66;5066938;28;20046;-78
2022/06/27 09:38:13;;;;;;;22.65;9.98;;;;;;;18.81;82.11;101428.63;5065097;28;20032;-78
2022/06/27 09:40:39;;;;;;;22.30;10.02;;;;;;;18.81;77.64;101423.19;5064259;28;20040;-78
2022/06/27 09:43:07;;;;;;;21.70;9.10;;;;;;;18.92;79.07;101429.47;5064384;28;20097;-78
2022/06/27 09:45:33;;;;;;;20.67;9.02;;;;;;;19.00;79.11;101419.50;5068501;28;20421;-78
2022/06/27 09:48:05;;;;;;;21.73;8.80;;;;;;;19.08;79.10;101420.59;5065112;28;20036;-78
2022/06/27 09:50:34;;;;;;;21.10;8.98;;;;;;;19.11;75.49;101426.63;5072399;28;20024;-78
2022/06/27 09:53:00;;;;;;;19.83;7.40;;;;;;;19.20;79.54;101425.69;5063080;28;20029;-78
2022/06/27 09:55:26;;;;;;;21.33;7.38;;;;;;;19.26;78.83;101423.38;5077590;28;20043;-78
2022/06/27 09:57:54;;;;;;;20.67;7.75;;;;;;;19.28;74.75;101426.78;5074016;28;20021;-78
2022/06/27 10:00:20;;;;;;;18.23;7.60;;;;;;;19.29;75.74;101421.16;5066544;28;20507;-78
2022/06/27 10:02:47;;;;;;;18.58;7.45;;;;;;;19.28;78.12;101415.88;5067199;28;20016;-78
2022/06/27 10:05:16;;;;;;;21.33;7.00;;;;;;;19.31;79.71;101410.09;5064771;28;20029;-78
2022/06/27 10:07:43;;;;;;;18.38;7.25;;;;;;;19.36;80.35;101413.25;5064549;28;20061;-78
2022/06/27 10:10:08;;;;;;;22.90;7.80;;;;;;;19.37;77.42;101407.63;5067325;28;20040;-78
2022/06/27 10:12:37;;;;;;;21.23;8.70;;;;;;;19.39;74.68;101407.47;5068609;28;20040;-78
2022/06/27 10:15:11;;;;;;;19.35;8.95;;;;;;;19.48;77.32;101405.66;5069429;28;20051;-79
2022/06/27 10:17:42;;;;;;;23.25;8.75;;;;;;;19.54;74.83;101405.88;5066994;28;20127;-79
2022/06/27 10:20:20;;;;;;;18.98;8.02;;;;;;;19.57;73.39;101399.25;5067230;28;20056;-79
2022/06/27 10:23:08;;;;;;;20.10;8.30;;;;;;;19.64;77.26;101403.06;5056899;28;20025;-79
2022/06/27 10:25:42;;;;;;;19.35;8.50;;;;;;;19.76;76.43;101402.81;5062749;28;20032;-78
2022/06/27 10:28:07;;;;;;;20.88;7.95;;;;;;;19.76;72.28;101400.94;5066663;28;20092;-78
2022/06/27 10:30:44;;;;;;;19.80;8.40;;;;;;;19.81;73.62;101406.81;5066438;28;20111;-78
2022/06/27 10:33:21;;;;;;;17.48;7.75;;;;;;;19.83;74.62;101404.78;5067657;28;20089;-78
2022/06/27 10:35:57;;;;;;;22.67;8.27;;;;;;;19.83;74.55;101412.97;5067545;28;20395;-78
2022/06/27 10:38:27;;;;;;;19.38;7.53;;;;;;;19.82;72.05;101404.94;5068731;28;20091;-78
2022/06/27 10:40:54;;;;;;;21.08;7.40;;;;;;;19.82;75.39;101405.78;5069271;28;20487;-79
2022/06/27 10:43:39;;;;;;;18.30;7.40;;;;;;;19.78;73.41;101412.59;5068619;28;20020;-79
2022/06/27 10:46:10;;;;;;;17.98;7.60;;;;;;;19.71;74.49;101414.22;5068275;28;20102;-79
2022/06/27 10:48:38;;;;;;;19.00;8.05;;;;;;;19.66;72.96;101408.38;5052748;28;20051;-78
2022/06/27 10:51:24;;;;;;;19.85;8.07;;;;;;;19.66;74.88;101408.38;5068975;28;20032;-78
2022/06/27 10:54:05;;;;;;;21.60;9.50;;;;;;;19.60;73.44;101415.31;5068277;28;20039;-78
2022/06/27 10:56:35;;;;;;;21.75;8.02;;;;;;;19.56;73.65;101417.50;5068062;28;20432;-78
2022/06/27 10:59:05;;;;;;;19.52;7.60;;;;;;;19.52;74.11;101413.38;5068457;28;20081;-78
2022/06/27 11:01:32;;;;;;;17.45;6.63;;;;;;;19.51;74.77;101414.38;5065539;28;20527;-78
2022/06/27 11:03:58;;;;;;;18.33;6.60;;;;;;;19.51;74.63;101424.44;5067595;28;20411;-78
2022/06/27 11:06:25;;;;;;;13.30;4.60;;;;;;;19.51;71.09;101425.28;5073154;28;20032;-78
2022/06/27 11:08:52;;;;;;;14.15;4.45;;;;;;;19.51;70.48;101417.09;5070554;28;20049;-79
2022/06/27 11:11:20;;;;;;;15.77;5.32;;;;;;;19.52;71.36;101421.56;5072158;28;20024;-79
2022/06/27 11:13:51;;;;;;;14.85;5.03;;;;;;;19.55;69.91;101417.66;5069486;28;20479;-77
2022/06/27 11:16:18;;;;;;;13.70;4.75;;;;;;;19.59;70.65;101421.78;5069074;28;20025;-78
2022/06/27 11:18:48;;;;;;;13.23;4.40;;;;;;;19.62;70.55;101426.03;5067444;28;20470;-76